METAR Data
IDs: Format: Raw Decoded Include TAF

Data at: 1420 UTC 22 Apr 2021

KTLH 221353Z 03011KT 10SM CLR 12/M02 A3020 RMK AO2 SLP227 T01221022
KTLH 221253Z 05011G16KT 10SM CLR 11/M03 A3019 RMK AO2 SLP224 T01061028
KTLH 221153Z VRB06KT 10SM FEW046 FEW110 10/M02 A3018 RMK AO2 SLP220 T01001022 10133 20094 53019
KTLH 221053Z 03007KT 10SM FEW044 09/M02 A3016 RMK AO2 SLP211 T00941017
KTLH 220953Z 02007KT 10SM CLR 10/M01 A3014 RMK AO2 SLP204 T01001006
KTLH 220853Z AUTO 36010KT 10SM CLR 11/00 A3013 RMK AO2 SLP200 T01060000 53002
KTLH 220753Z AUTO 36010KT 10SM CLR 12/00 A3012 RMK AO2 SLP200 T01170000
KTLH 220653Z AUTO 36011KT 10SM CLR 12/01 A3011 RMK AO2 SLP196 T01220006
KTLH 220553Z AUTO 35011KT 10SM CLR 13/01 A3012 RMK AO2 SLP198 T01330006 10228 20133 53008
KTLH 220453Z AUTO 35013G19KT 10SM CLR 14/00 A3011 RMK AO2 SLP196 T01440000 402830106
KTLH 220353Z AUTO 35011G18KT 10SM CLR 16/01 A3010 RMK AO2 SLP192 T01610006
KTLH 220253Z 34010KT 10SM CLR 17/03 A3009 RMK AO2 SLP190 T01720028 53033
KTLH 220153Z 34008KT 10SM CLR 19/04 A3006 RMK AO2 SLP177 T01890044
KTLH 220053Z COR 32010KT 10SM FEW120 21/08 A3003 RMK AO2 SLP168 T02110083
KTLH 212353Z 31013KT 10SM FEW080 FEW120 23/09 A3000 RMK AO2 SLP157 T02280089 10283 20228 53010
KTLH 212253Z 31012KT 10SM FEW180 25/08 A2998 RMK AO2 SLP151 T02500083
KTLH 212153Z 31015G23KT 10SM FEW060 FEW170 26/08 A2998 RMK AO2 SLP149 T02610083
KTLH 212053Z 31014G22KT 10SM FEW060 FEW180 27/08 A2997 RMK AO2 SLP147 T02720083 56012
KTLH 211953Z 31016G26KT 10SM FEW070 FEW200 28/07 A2997 RMK AO2 PK WND 34026/1945 SLP149 T02780072
KTLH 211853Z 31016KT 10SM FEW070 28/07 A2999 RMK AO2 SLP154 T02830072
KTLH 211753Z 30011G26KT 10SM CLR 27/08 A3000 RMK AO2 PK WND 31026/1749 SLP159 T02720083 10272 20122 58006
KTLH 211653Z 31018KT 10SM CLR 27/08 A3002 RMK AO2 SLP164 T02670083
KTLH 211553Z 32011G20KT 10SM CLR 26/09 A3003 RMK AO2 SLP167 T02560089
KTLH 211453Z 34010KT 10SM CLR 24/09 A3002 RMK AO2 SLP165 T02390094 53006
KTLH 211353Z 33005KT 10SM CLR 21/11 A3002 RMK AO2 SLP163 T02110111
KTLH 211253Z 31005KT 10SM CLR 17/12 A3001 RMK AO2 SLP161 T01720117
KTLH 211153Z 00000KT 10SM CLR 12/10 A3001 RMK AO2 SLP160 T01170100 10144 20106 53013
KTLH 211053Z 00000KT 10SM CLR 11/09 A2999 RMK AO2 SLP153 T01060089
KTLH 210953Z 00000KT 10SM CLR 11/09 A2997 RMK AO2 SLP149 T01110094
KTLH 210853Z AUTO 00000KT 10SM CLR 13/10 A2997 RMK AO2 SLP147 T01280100 55003
KTLH 210753Z AUTO 00000KT 10SM CLR 13/11 A2996 RMK AO2 SLP145 T01280106
KTLH 210653Z AUTO 00000KT 10SM CLR 13/11 A2997 RMK AO2 SLP146 T01330111
KTLH 210553Z AUTO 00000KT 10SM CLR 14/12 A2998 RMK AO2 SLP150 T01440117 10244 20144 51006
KTLH 210453Z AUTO 00000KT 10SM CLR 16/12 A2998 RMK AO2 SLP149 T01560117 402720122
KTLH 210353Z AUTO 28004KT 10SM CLR 16/12 A2997 RMK AO2 SLP147 T01610122
KTLH 210253Z 00000KT 10SM FEW120 17/12 A2996 RMK AO2 SLP144 T01720122 51019